sensor_id;sensor_type;location;lat;lon;timestamp;P1;durP1;ratioP1;P2;durP2;ratioP2
48873;SDS011;66155;46.204;5.220;2023-06-10T00:04:17;6.25;;;4.47;;
48873;SDS011;66155;46.204;5.220;2023-06-10T00:09:18;5.63;;;4.20;;
48873;SDS011;66155;46.204;5.220;2023-06-10T00:14:18;8.93;;;4.63;;
48873;SDS011;66155;46.204;5.220;2023-06-10T00:19:19;10.77;;;4.63;;
48873;SDS011;66155;46.204;5.220;2023-06-10T00:24:19;7.07;;;4.67;;
48873;SDS011;66155;46.204;5.220;2023-06-10T00:29:19;7.40;;;4.88;;
48873;SDS011;66155;46.204;5.220;2023-06-10T00:34:20;7.67;;;4.90;;
48873;SDS011;66155;46.204;5.220;2023-06-10T00:39:20;8.02;;;5.30;;
48873;SDS011;66155;46.204;5.220;2023-06-10T00:44:21;6.80;;;4.73;;
48873;SDS011;66155;46.204;5.220;2023-06-10T00:49:21;7.43;;;5.22;;
48873;SDS011;66155;46.204;5.220;2023-06-10T00:54:22;7.57;;;4.82;;
48873;SDS011;66155;46.204;5.220;2023-06-10T00:59:22;8.32;;;5.70;;
48873;SDS011;66155;46.204;5.220;2023-06-10T01:04:23;10.33;;;5.53;;
48873;SDS011;66155;46.204;5.220;2023-06-10T01:09:31;7.30;;;5.22;;
48873;SDS011;66155;46.204;5.220;2023-06-10T01:14:38;9.40;;;5.72;;
48873;SDS011;66155;46.204;5.220;2023-06-10T01:19:52;10.15;;;5.70;;
48873;SDS011;66155;46.204;5.220;2023-06-10T01:24:55;10.25;;;5.70;;
48873;SDS011;66155;46.204;5.220;2023-06-10T01:29:59;8.40;;;5.70;;
48873;SDS011;66155;46.204;5.220;2023-06-10T01:35:07;7.78;;;5.20;;
48873;SDS011;66155;46.204;5.220;2023-06-10T01:40:08;8.48;;;5.53;;
48873;SDS011;66155;46.204;5.220;2023-06-10T01:45:10;8.75;;;5.78;;
48873;SDS011;66155;46.204;5.220;2023-06-10T01:50:10;9.13;;;5.63;;
48873;SDS011;66155;46.204;5.220;2023-06-10T01:55:11;8.77;;;5.03;;
48873;SDS011;66155;46.204;5.220;2023-06-10T02:00:11;8.27;;;5.43;;
48873;SDS011;66155;46.204;5.220;2023-06-10T02:05:13;7.82;;;5.07;;
48873;SDS011;66155;46.204;5.220;2023-06-10T02:10:13;6.65;;;5.32;;
48873;SDS011;66155;46.204;5.220;2023-06-10T02:15:14;9.37;;;5.03;;
48873;SDS011;66155;46.204;5.220;2023-06-10T02:20:14;8.73;;;4.90;;
48873;SDS011;66155;46.204;5.220;2023-06-10T02:25:15;7.22;;;4.82;;
48873;SDS011;66155;46.204;5.220;2023-06-10T02:30:15;7.43;;;4.95;;
48873;SDS011;66155;46.204;5.220;2023-06-10T02:35:16;8.55;;;5.97;;
48873;SDS011;66155;46.204;5.220;2023-06-10T02:40:17;10.65;;;4.80;;
48873;SDS011;66155;46.204;5.220;2023-06-10T02:45:17;8.37;;;5.07;;
48873;SDS011;66155;46.204;5.220;2023-06-10T02:50:18;11.75;;;5.10;;
48873;SDS011;66155;46.204;5.220;2023-06-10T02:55:18;6.32;;;4.38;;
48873;SDS011;66155;46.204;5.220;2023-06-10T03:00:19;8.07;;;5.05;;
48873;SDS011;66155;46.204;5.220;2023-06-10T03:05:21;9.30;;;5.00;;
48873;SDS011;66155;46.204;5.220;2023-06-10T03:10:23;10.40;;;5.00;;
48873;SDS011;66155;46.204;5.220;2023-06-10T03:15:23;6.50;;;4.63;;
48873;SDS011;66155;46.204;5.220;2023-06-10T03:20:24;6.50;;;4.60;;
48873;SDS011;66155;46.204;5.220;2023-06-10T03:25:25;5.15;;;3.90;;
48873;SDS011;66155;46.204;5.220;2023-06-10T03:30:27;7.53;;;4.57;;
48873;SDS011;66155;46.204;5.220;2023-06-10T03:35:30;5.80;;;4.28;;
48873;SDS011;66155;46.204;5.220;2023-06-10T03:40:32;6.82;;;4.72;;
48873;SDS011;66155;46.204;5.220;2023-06-10T03:45:32;8.32;;;4.15;;
48873;SDS011;66155;46.204;5.220;2023-06-10T03:50:33;8.60;;;4.20;;
48873;SDS011;66155;46.204;5.220;2023-06-10T03:55:34;5.43;;;4.38;;
48873;SDS011;66155;46.204;5.220;2023-06-10T04:00:36;6.70;;;4.13;;
48873;SDS011;66155;46.204;5.220;2023-06-10T04:05:41;7.07;;;4.43;;
48873;SDS011;66155;46.204;5.220;2023-06-10T04:10:41;6.97;;;4.35;;
48873;SDS011;66155;46.204;5.220;2023-06-10T04:15:42;6.63;;;4.40;;
48873;SDS011;66155;46.204;5.220;2023-06-10T04:20:42;8.27;;;4.50;;
48873;SDS011;66155;46.204;5.220;2023-06-10T04:25:44;11.82;;;4.50;;
48873;SDS011;66155;46.204;5.220;2023-06-10T04:30:44;6.53;;;4.50;;
48873;SDS011;66155;46.204;5.220;2023-06-10T04:35:46;7.20;;;3.75;;
48873;SDS011;66155;46.204;5.220;2023-06-10T04:40:47;7.65;;;4.35;;
48873;SDS011;66155;46.204;5.220;2023-06-10T04:45:48;7.80;;;4.47;;
48873;SDS011;66155;46.204;5.220;2023-06-10T04:50:48;5.97;;;4.10;;
48873;SDS011;66155;46.204;5.220;2023-06-10T04:55:48;6.40;;;4.10;;
48873;SDS011;66155;46.204;5.220;2023-06-10T05:00:49;8.10;;;4.03;;
48873;SDS011;66155;46.204;5.220;2023-06-10T05:05:50;7.32;;;3.80;;
48873;SDS011;66155;46.204;5.220;2023-06-10T05:10:50;6.07;;;3.63;;
48873;SDS011;66155;46.204;5.220;2023-06-10T05:15:50;6.57;;;3.80;;
48873;SDS011;66155;46.204;5.220;2023-06-10T05:20:51;7.13;;;4.20;;
48873;SDS011;66155;46.204;5.220;2023-06-10T05:25:51;7.23;;;4.10;;
48873;SDS011;66155;46.204;5.220;2023-06-10T05:30:52;6.95;;;4.07;;
48873;SDS011;66155;46.204;5.220;2023-06-10T05:35:52;5.77;;;3.60;;
48873;SDS011;66155;46.204;5.220;2023-06-10T05:40:53;8.85;;;4.88;;
48873;SDS011;66155;46.204;5.220;2023-06-10T05:45:53;7.17;;;3.60;;
48873;SDS011;66155;46.204;5.220;2023-06-10T05:50:54;6.30;;;3.25;;
48873;SDS011;66155;46.204;5.220;2023-06-10T05:55:55;4.35;;;2.72;;
48873;SDS011;66155;46.204;5.220;2023-06-10T06:00:57;5.25;;;3.35;;
48873;SDS011;66155;46.204;5.220;2023-06-10T06:05:57;6.60;;;3.50;;
48873;SDS011;66155;46.204;5.220;2023-06-10T06:10:58;9.07;;;4.00;;
48873;SDS011;66155;46.204;5.220;2023-06-10T06:15:58;6.70;;;2.90;;
48873;SDS011;66155;46.204;5.220;2023-06-10T06:20:59;5.33;;;4.10;;
48873;SDS011;66155;46.204;5.220;2023-06-10T06:25:59;5.32;;;3.75;;
48873;SDS011;66155;46.204;5.220;2023-06-10T06:30:59;5.40;;;3.00;;
48873;SDS011;66155;46.204;5.220;2023-06-10T06:36:00;4.47;;;3.05;;
48873;SDS011;66155;46.204;5.220;2023-06-10T06:41:00;4.78;;;2.60;;
48873;SDS011;66155;46.204;5.220;2023-06-10T06:46:03;6.10;;;3.10;;
48873;SDS011;66155;46.204;5.220;2023-06-10T06:51:03;6.57;;;3.00;;
48873;SDS011;66155;46.204;5.220;2023-06-10T06:56:04;5.72;;;3.08;;
48873;SDS011;66155;46.204;5.220;2023-06-10T07:01:04;5.70;;;2.80;;
48873;SDS011;66155;46.204;5.220;2023-06-10T07:06:05;5.03;;;2.63;;
48873;SDS011;66155;46.204;5.220;2023-06-10T07:11:06;3.78;;;2.72;;
48873;SDS011;66155;46.204;5.220;2023-06-10T07:16:07;2.92;;;2.42;;
48873;SDS011;66155;46.204;5.220;2023-06-10T07:21:07;4.00;;;2.78;;
48873;SDS011;66155;46.204;5.220;2023-06-10T07:26:08;5.32;;;3.45;;
48873;SDS011;66155;46.204;5.220;2023-06-10T07:31:10;5.20;;;3.08;;
48873;SDS011;66155;46.204;5.220;2023-06-10T07:36:12;7.55;;;4.78;;
48873;SDS011;66155;46.204;5.220;2023-06-10T07:41:12;5.33;;;3.40;;
48873;SDS011;66155;46.204;5.220;2023-06-10T07:46:12;5.43;;;3.13;;
48873;SDS011;66155;46.204;5.220;2023-06-10T07:51:13;4.95;;;2.88;;
48873;SDS011;66155;46.204;5.220;2023-06-10T07:56:13;6.07;;;3.10;;
48873;SDS011;66155;46.204;5.220;2023-06-10T08:01:13;3.90;;;2.63;;
48873;SDS011;66155;46.204;5.220;2023-06-10T08:06:14;4.90;;;3.15;;
48873;SDS011;66155;46.204;5.220;2023-06-10T08:11:17;3.22;;;2.55;;
48873;SDS011;66155;46.204;5.220;2023-06-10T08:16:17;5.57;;;2.90;;
48873;SDS011;66155;46.204;5.220;2023-06-10T08:21:17;6.40;;;3.70;;
48873;SDS011;66155;46.204;5.220;2023-06-10T08:26:18;4.40;;;2.87;;
48873;SDS011;66155;46.204;5.220;2023-06-10T08:31:18;4.57;;;2.97;;
48873;SDS011;66155;46.204;5.220;2023-06-10T08:36:18;6.20;;;4.50;;
48873;SDS011;66155;46.204;5.220;2023-06-10T08:41:19;3.85;;;2.88;;
48873;SDS011;66155;46.204;5.220;2023-06-10T08:46:21;7.78;;;2.90;;
48873;SDS011;66155;46.204;5.220;2023-06-10T08:51:22;4.18;;;3.20;;
48873;SDS011;66155;46.204;5.220;2023-06-10T08:56:25;5.25;;;2.92;;
48873;SDS011;66155;46.204;5.220;2023-06-10T09:01:28;5.70;;;3.30;;
48873;SDS011;66155;46.204;5.220;2023-06-10T09:06:30;3.85;;;2.97;;
48873;SDS011;66155;46.204;5.220;2023-06-10T09:11:32;4.32;;;3.85;;
48873;SDS011;66155;46.204;5.220;2023-06-10T09:16:33;5.63;;;3.70;;
48873;SDS011;66155;46.204;5.220;2023-06-10T09:21:34;4.90;;;3.28;;
48873;SDS011;66155;46.204;5.220;2023-06-10T09:26:36;6.28;;;2.65;;
48873;SDS011;66155;46.204;5.220;2023-06-10T09:31:36;5.83;;;3.33;;
48873;SDS011;66155;46.204;5.220;2023-06-10T09:36:37;4.72;;;4.32;;
48873;SDS011;66155;46.204;5.220;2023-06-10T09:41:39;5.07;;;3.15;;
48873;SDS011;66155;46.204;5.220;2023-06-10T09:46:40;4.72;;;3.47;;
48873;SDS011;66155;46.204;5.220;2023-06-10T09:51:51;5.57;;;3.40;;
48873;SDS011;66155;46.204;5.220;2023-06-10T09:56:53;4.32;;;3.38;;
48873;SDS011;66155;46.204;5.220;2023-06-10T10:01:56;5.73;;;3.20;;
48873;SDS011;66155;46.204;5.220;2023-06-10T10:06:57;5.50;;;3.40;;
48873;SDS011;66155;46.204;5.220;2023-06-10T10:11:59;6.97;;;3.15;;
48873;SDS011;66155;46.204;5.220;2023-06-10T10:17:01;5.32;;;3.58;;
48873;SDS011;66155;46.204;5.220;2023-06-10T10:22:10;4.97;;;3.72;;
48873;SDS011;66155;46.204;5.220;2023-06-10T10:27:20;4.38;;;3.30;;
48873;SDS011;66155;46.204;5.220;2023-06-10T10:32:27;5.40;;;3.60;;
48873;SDS011;66155;46.204;5.220;2023-06-10T10:37:35;6.38;;;4.82;;
48873;SDS011;66155;46.204;5.220;2023-06-10T10:42:36;4.43;;;3.50;;
48873;SDS011;66155;46.204;5.220;2023-06-10T10:47:38;5.18;;;4.03;;
48873;SDS011;66155;46.204;5.220;2023-06-10T10:58:23;4.50;;;3.30;;
48873;SDS011;66155;46.204;5.220;2023-06-10T11:13:28;5.27;;;3.73;;
48873;SDS011;66155;46.204;5.220;2023-06-10T11:18:29;3.70;;;3.40;;
48873;SDS011;66155;46.204;5.220;2023-06-10T11:23:34;4.95;;;3.90;;
48873;SDS011;66155;46.204;5.220;2023-06-10T11:28:42;3.80;;;3.45;;
48873;SDS011;66155;46.204;5.220;2023-06-10T11:34:04;4.27;;;3.20;;
48873;SDS011;66155;46.204;5.220;2023-06-10T11:39:06;6.05;;;3.78;;
48873;SDS011;66155;46.204;5.220;2023-06-10T11:44:07;5.43;;;3.75;;
48873;SDS011;66155;46.204;5.220;2023-06-10T11:49:10;4.45;;;3.95;;
48873;SDS011;66155;46.204;5.220;2023-06-10T11:54:11;5.90;;;4.07;;
48873;SDS011;66155;46.204;5.220;2023-06-10T11:59:12;4.60;;;4.00;;
48873;SDS011;66155;46.204;5.220;2023-06-10T12:04:13;3.90;;;3.60;;
48873;SDS011;66155;46.204;5.220;2023-06-10T12:09:28;4.50;;;3.00;;
48873;SDS011;66155;46.204;5.220;2023-06-10T12:19:56;4.78;;;4.40;;
48873;SDS011;66155;46.204;5.220;2023-06-10T12:24:57;4.80;;;4.27;;
48873;SDS011;66155;46.204;5.220;2023-06-10T12:30:00;4.45;;;3.45;;
48873;SDS011;66155;46.204;5.220;2023-06-10T12:35:04;5.07;;;3.47;;
48873;SDS011;66155;46.204;5.220;2023-06-10T12:40:05;3.28;;;2.97;;
48873;SDS011;66155;46.204;5.220;2023-06-10T12:45:08;4.95;;;3.40;;
48873;SDS011;66155;46.204;5.220;2023-06-10T12:50:10;3.58;;;3.10;;
48873;SDS011;66155;46.204;5.220;2023-06-10T12:55:12;3.08;;;2.88;;
48873;SDS011;66155;46.204;5.220;2023-06-10T13:00:12;3.20;;;3.00;;
48873;SDS011;66155;46.204;5.220;2023-06-10T13:05:14;2.83;;;2.63;;
48873;SDS011;66155;46.204;5.220;2023-06-10T13:10:14;5.13;;;4.73;;
48873;SDS011;66155;46.204;5.220;2023-06-10T13:15:16;3.67;;;3.22;;
48873;SDS011;66155;46.204;5.220;2023-06-10T13:20:17;3.28;;;2.97;;
48873;SDS011;66155;46.204;5.220;2023-06-10T13:25:18;3.75;;;3.35;;
48873;SDS011;66155;46.204;5.220;2023-06-10T13:30:18;3.40;;;2.58;;
48873;SDS011;66155;46.204;5.220;2023-06-10T13:35:19;4.82;;;4.43;;
48873;SDS011;66155;46.204;5.220;2023-06-10T13:40:19;4.07;;;3.05;;
48873;SDS011;66155;46.204;5.220;2023-06-10T13:45:20;4.80;;;3.33;;
48873;SDS011;66155;46.204;5.220;2023-06-10T13:50:20;3.10;;;2.90;;
48873;SDS011;66155;46.204;5.220;2023-06-10T13:55:21;3.70;;;3.20;;
48873;SDS011;66155;46.204;5.220;2023-06-10T14:00:21;3.40;;;3.03;;
48873;SDS011;66155;46.204;5.220;2023-06-10T14:05:22;4.07;;;3.03;;
48873;SDS011;66155;46.204;5.220;2023-06-10T14:10:22;4.50;;;4.10;;
48873;SDS011;66155;46.204;5.220;2023-06-10T14:15:23;3.40;;;3.10;;
48873;SDS011;66155;46.204;5.220;2023-06-10T14:20:23;3.17;;;2.87;;
48873;SDS011;66155;46.204;5.220;2023-06-10T14:25:25;4.45;;;4.05;;
48873;SDS011;66155;46.204;5.220;2023-06-10T14:30:26;3.60;;;3.30;;
48873;SDS011;66155;46.204;5.220;2023-06-10T14:35:26;4.40;;;3.03;;
48873;SDS011;66155;46.204;5.220;2023-06-10T14:40:26;3.30;;;2.97;;
48873;SDS011;66155;46.204;5.220;2023-06-10T14:45:29;3.30;;;2.95;;
48873;SDS011;66155;46.204;5.220;2023-06-10T14:50:29;5.35;;;2.90;;
48873;SDS011;66155;46.204;5.220;2023-06-10T14:55:30;3.33;;;3.03;;
48873;SDS011;66155;46.204;5.220;2023-06-10T15:00:30;3.00;;;2.77;;
48873;SDS011;66155;46.204;5.220;2023-06-10T15:05:31;3.53;;;2.90;;
48873;SDS011;66155;46.204;5.220;2023-06-10T15:10:33;3.40;;;3.10;;
48873;SDS011;66155;46.204;5.220;2023-06-10T15:15:33;3.47;;;2.80;;
48873;SDS011;66155;46.204;5.220;2023-06-10T15:20:34;3.10;;;2.80;;
48873;SDS011;66155;46.204;5.220;2023-06-10T15:25:34;4.22;;;2.90;;
48873;SDS011;66155;46.204;5.220;2023-06-10T15:30:35;4.70;;;2.75;;
48873;SDS011;66155;46.204;5.220;2023-06-10T15:35:37;2.60;;;2.40;;
48873;SDS011;66155;46.204;5.220;2023-06-10T15:40:40;3.43;;;2.80;;
48873;SDS011;66155;46.204;5.220;2023-06-10T15:45:41;3.25;;;2.95;;
48873;SDS011;66155;46.204;5.220;2023-06-10T15:50:42;3.33;;;2.90;;
48873;SDS011;66155;46.204;5.220;2023-06-10T15:55:42;4.22;;;2.70;;
48873;SDS011;66155;46.204;5.220;2023-06-10T16:00:43;5.13;;;4.20;;
48873;SDS011;66155;46.204;5.220;2023-06-10T16:05:43;3.83;;;3.53;;
48873;SDS011;66155;46.204;5.220;2023-06-10T16:10:43;2.97;;;2.57;;
48873;SDS011;66155;46.204;5.220;2023-06-10T16:15:44;4.67;;;3.10;;
48873;SDS011;66155;46.204;5.220;2023-06-10T16:20:44;2.60;;;2.40;;
48873;SDS011;66155;46.204;5.220;2023-06-10T16:25:45;2.97;;;2.47;;
48873;SDS011;66155;46.204;5.220;2023-06-10T16:30:45;3.05;;;2.65;;
48873;SDS011;66155;46.204;5.220;2023-06-10T16:35:46;3.78;;;2.90;;
48873;SDS011;66155;46.204;5.220;2023-06-10T16:40:49;3.17;;;2.90;;
48873;SDS011;66155;46.204;5.220;2023-06-10T16:45:50;3.00;;;2.70;;
48873;SDS011;66155;46.204;5.220;2023-06-10T16:50:50;2.70;;;2.50;;
48873;SDS011;66155;46.204;5.220;2023-06-10T16:55:51;3.38;;;2.60;;
48873;SDS011;66155;46.204;5.220;2023-06-10T17:00:51;3.67;;;2.83;;
48873;SDS011;66155;46.204;5.220;2023-06-10T17:05:52;3.10;;;2.75;;
48873;SDS011;66155;46.204;5.220;2023-06-10T17:10:52;3.30;;;3.00;;
48873;SDS011;66155;46.204;5.220;2023-06-10T17:15:53;4.00;;;3.70;;
48873;SDS011;66155;46.204;5.220;2023-06-10T17:20:53;3.10;;;2.90;;
48873;SDS011;66155;46.204;5.220;2023-06-10T17:25:53;4.47;;;3.00;;
48873;SDS011;66155;46.204;5.220;2023-06-10T17:30:54;3.38;;;3.05;;
48873;SDS011;66155;46.204;5.220;2023-06-10T17:35:54;3.60;;;3.30;;
48873;SDS011;66155;46.204;5.220;2023-06-10T17:40:55;3.67;;;3.07;;
48873;SDS011;66155;46.204;5.220;2023-06-10T17:45:56;3.08;;;2.85;;
48873;SDS011;66155;46.204;5.220;2023-06-10T17:50:57;3.13;;;2.83;;
48873;SDS011;66155;46.204;5.220;2023-06-10T17:55:58;3.23;;;2.93;;
48873;SDS011;66155;46.204;5.220;2023-06-10T18:00:58;3.43;;;3.13;;
48873;SDS011;66155;46.204;5.220;2023-06-10T18:05:59;3.05;;;2.85;;
48873;SDS011;66155;46.204;5.220;2023-06-10T18:10:59;3.35;;;3.13;;
48873;SDS011;66155;46.204;5.220;2023-06-10T18:16:01;3.70;;;3.40;;
48873;SDS011;66155;46.204;5.220;2023-06-10T18:21:02;3.60;;;3.30;;
48873;SDS011;66155;46.204;5.220;2023-06-10T18:26:02;4.00;;;3.70;;
48873;SDS011;66155;46.204;5.220;2023-06-10T18:31:03;3.33;;;3.10;;
48873;SDS011;66155;46.204;5.220;2023-06-10T18:36:03;3.20;;;2.90;;
48873;SDS011;66155;46.204;5.220;2023-06-10T18:41:04;3.83;;;2.97;;
48873;SDS011;66155;46.204;5.220;2023-06-10T18:46:05;3.42;;;3.13;;
48873;SDS011;66155;46.204;5.220;2023-06-10T18:51:05;3.30;;;3.10;;
48873;SDS011;66155;46.204;5.220;2023-06-10T18:56:06;3.90;;;3.50;;
48873;SDS011;66155;46.204;5.220;2023-06-10T19:01:06;4.93;;;3.30;;
48873;SDS011;66155;46.204;5.220;2023-06-10T19:06:07;3.37;;;3.07;;
48873;SDS011;66155;46.204;5.220;2023-06-10T19:11:07;3.65;;;3.30;;
48873;SDS011;66155;46.204;5.220;2023-06-10T19:16:08;4.57;;;3.20;;
48873;SDS011;66155;46.204;5.220;2023-06-10T19:21:08;3.45;;;3.10;;
48873;SDS011;66155;46.204;5.220;2023-06-10T19:26:09;3.58;;;3.28;;
48873;SDS011;66155;46.204;5.220;2023-06-10T19:31:10;5.65;;;3.50;;
48873;SDS011;66155;46.204;5.220;2023-06-10T19:36:10;3.43;;;3.17;;
48873;SDS011;66155;46.204;5.220;2023-06-10T19:41:11;3.67;;;3.38;;
48873;SDS011;66155;46.204;5.220;2023-06-10T19:46:11;3.85;;;3.10;;
48873;SDS011;66155;46.204;5.220;2023-06-10T19:51:14;3.30;;;3.00;;
48873;SDS011;66155;46.204;5.220;2023-06-10T19:56:17;3.45;;;3.15;;
48873;SDS011;66155;46.204;5.220;2023-06-10T20:01:22;4.53;;;2.42;;
48873;SDS011;66155;46.204;5.220;2023-06-10T20:06:22;4.30;;;2.97;;
48873;SDS011;66155;46.204;5.220;2023-06-10T20:11:23;6.72;;;3.10;;
48873;SDS011;66155;46.204;5.220;2023-06-10T20:16:24;3.33;;;3.03;;
48873;SDS011;66155;46.204;5.220;2023-06-10T20:21:25;3.97;;;3.20;;
48873;SDS011;66155;46.204;5.220;2023-06-10T20:26:25;4.27;;;2.90;;
48873;SDS011;66155;46.204;5.220;2023-06-10T20:31:26;4.73;;;3.20;;
48873;SDS011;66155;46.204;5.220;2023-06-10T20:36:26;4.32;;;3.30;;
48873;SDS011;66155;46.204;5.220;2023-06-10T20:41:27;4.37;;;3.33;;
48873;SDS011;66155;46.204;5.220;2023-06-10T20:46:28;6.32;;;3.10;;
48873;SDS011;66155;46.204;5.220;2023-06-10T20:51:29;4.30;;;3.20;;
48873;SDS011;66155;46.204;5.220;2023-06-10T20:56:29;4.22;;;3.40;;
48873;SDS011;66155;46.204;5.220;2023-06-10T21:01:30;4.93;;;3.72;;
48873;SDS011;66155;46.204;5.220;2023-06-10T21:06:33;4.93;;;3.78;;
48873;SDS011;66155;46.204;5.220;2023-06-10T21:11:33;5.00;;;3.40;;
48873;SDS011;66155;46.204;5.220;2023-06-10T21:16:33;5.10;;;3.50;;
48873;SDS011;66155;46.204;5.220;2023-06-10T21:21:34;5.43;;;3.20;;
48873;SDS011;66155;46.204;5.220;2023-06-10T21:26:34;4.87;;;3.53;;
48873;SDS011;66155;46.204;5.220;2023-06-10T21:31:35;4.18;;;3.75;;
48873;SDS011;66155;46.204;5.220;2023-06-10T21:36:35;5.40;;;4.10;;
48873;SDS011;66155;46.204;5.220;2023-06-10T21:41:35;4.27;;;3.53;;
48873;SDS011;66155;46.204;5.220;2023-06-10T21:46:36;5.25;;;3.90;;
48873;SDS011;66155;46.204;5.220;2023-06-10T21:51:37;5.15;;;3.75;;
48873;SDS011;66155;46.204;5.220;2023-06-10T21:56:37;5.07;;;3.53;;
48873;SDS011;66155;46.204;5.220;2023-06-10T22:01:38;6.50;;;3.53;;
48873;SDS011;66155;46.204;5.220;2023-06-10T22:06:38;5.60;;;4.00;;
48873;SDS011;66155;46.204;5.220;2023-06-10T22:11:39;7.68;;;4.97;;
48873;SDS011;66155;46.204;5.220;2023-06-10T22:16:39;7.20;;;4.68;;
48873;SDS011;66155;46.204;5.220;2023-06-10T22:21:40;6.65;;;4.55;;
48873;SDS011;66155;46.204;5.220;2023-06-10T22:26:40;6.82;;;3.88;;
48873;SDS011;66155;46.204;5.220;2023-06-10T22:31:41;6.10;;;4.30;;
48873;SDS011;66155;46.204;5.220;2023-06-10T22:36:41;7.43;;;4.23;;
48873;SDS011;66155;46.204;5.220;2023-06-10T22:41:42;5.60;;;3.53;;
48873;SDS011;66155;46.204;5.220;2023-06-10T22:46:42;7.30;;;3.90;;
48873;SDS011;66155;46.204;5.220;2023-06-10T22:51:43;5.60;;;3.77;;
48873;SDS011;66155;46.204;5.220;2023-06-10T22:56:44;5.10;;;3.53;;
48873;SDS011;66155;46.204;5.220;2023-06-10T23:01:45;6.07;;;3.60;;
48873;SDS011;66155;46.204;5.220;2023-06-10T23:06:45;5.13;;;3.95;;
48873;SDS011;66155;46.204;5.220;2023-06-10T23:11:46;9.80;;;4.35;;
48873;SDS011;66155;46.204;5.220;2023-06-10T23:16:46;7.07;;;4.03;;
48873;SDS011;66155;46.204;5.220;2023-06-10T23:21:47;5.32;;;3.60;;
48873;SDS011;66155;46.204;5.220;2023-06-10T23:26:54;6.18;;;4.00;;
48873;SDS011;66155;46.204;5.220;2023-06-10T23:31:55;5.82;;;4.22;;
48873;SDS011;66155;46.204;5.220;2023-06-10T23:36:55;4.80;;;3.53;;
48873;SDS011;66155;46.204;5.220;2023-06-10T23:41:56;5.78;;;4.00;;
48873;SDS011;66155;46.204;5.220;2023-06-10T23:46:56;5.50;;;3.88;;
48873;SDS011;66155;46.204;5.220;2023-06-10T23:51:57;5.68;;;3.83;;
48873;SDS011;66155;46.204;5.220;2023-06-10T23:56:57;4.97;;;3.88;;
